• Join FlightAware (Why Join?)
  • Login
  • US Flag 
03:32AM EST


 

Airport Tracker/Info


-or-


 

Live Flight TrackerFlight Track Log ✈ SKW7363 ✈ 04-Jun-2014 ✈ KSLC - KTWF

Flight Track Log - Related Links

Times and Time Zones

All times are in EDT time to prevent confusion due to time zone crossing. See the SKW7363 flight status page for this flight to view local times or setup timezone preferences in your user account.

Time Position Orientation Groundspeed Altitude Reporting Facility
EDT Latitude Longitude Course Direction KTS MPH feet Rate Location/Type
10:19PM 40.8158 -112.0044 313° West 156 180 4,800  Level Salt Lake Center
10:20PM 40.8569 -112.0389 328° Northwest 173 199 6,100 1,260 Climbing Salt Lake Center
10:21PM 40.8939 -112.0747 324° Northwest 200 230 7,100 1,260 Climbing Salt Lake Center
10:21PM 40.9097 -112.0889 326° Northwest 219 252 7,400 1,200 Climbing Salt Lake Center
10:22PM 40.9565 -112.1475 315° West  Level FlightAware Approximate
10:22PM 40.9567 -112.1411 320° Northwest 226 260 8,600  Level Salt Lake Center
10:23PM 41.0121 -112.2244 313° West  Level FlightAware Approximate
10:23PM 40.9883 -112.1872 312° West 231 266 9,300  Level Salt Lake Center
10:24PM 41.0668 -112.3026 313° West  Level FlightAware Approximate
10:24PM 41.0308 -112.2569 309° West 238 274 10,200  Level Salt Lake Center
10:25PM 41.0753 -112.3269 310° West 244 281 11,100 660 Climbing Salt Lake Center
10:26PM 41.1256 -112.3925 316° Northwest 251 289 11,600 540 Climbing Salt Lake Center
10:27PM 41.1847 -112.4786 312° West 261 300 12,300 540 Climbing Salt Lake Center
10:28PM 41.2336 -112.5525 311° West 263 303 12,800 480 Climbing Salt Lake Center
10:29PM 41.2831 -112.6278 311° West 268 308 13,400 540 Climbing Salt Lake Center
10:30PM 41.3333 -112.7025 312° West 269 310 14,000 480 Climbing Salt Lake Center
10:31PM 41.3831 -112.7778 311° West 270 311 14,500 540 Climbing Salt Lake Center
10:32PM 41.4322 -112.8533 311° West 271 312 15,200 540 Climbing Salt Lake Center
10:33PM 41.4800 -112.9267 311° West 265 305 15,700 540 Climbing Salt Lake Center
10:34PM 41.5289 -113.0019 311° West 266 306 16,400 660 Climbing Salt Lake Center
10:35PM 41.5872 -113.0919 311° West 266 306 17,100 540 Climbing Salt Lake Center
10:36PM 41.6378 -113.1681 312° West 269 310 17,600 420 Climbing Salt Lake Center
10:37PM 41.6872 -113.2439 311° West 269 310 18,000 180 Climbing Salt Lake Center
10:38PM 41.7378 -113.3211 311° West 272 313 18,000  Level Salt Lake Center
10:39PM 41.7892 -113.3989 312° West 275 316 18,000 -180 Level Salt Lake Center
10:40PM 41.8394 -113.4794 310° West 278 320 17,700 -480 Descending Salt Lake Center
10:41PM 41.8931 -113.5622 311° West 291 335 17,100 -840 Descending Salt Lake Center
10:42PM 41.9608 -113.6669 311° West 306 352 16,000 -1,140 Descending Salt Lake Center
10:43PM 42.0178 -113.7567 311° West 309 356 14,800 -1,080 Descending Salt Lake Center
10:44PM 42.0747 -113.8444 311° West 315 362 13,800 -900 Descending Salt Lake Center
10:45PM 42.1283 -113.9286 311° West 303 349 13,000 -540 Descending Salt Lake Center
10:46PM 42.1781 -114.0081 310° West 287 330 12,800 -540 Descending Salt Lake Center
10:47PM 42.2325 -114.0981 309° West 283 326 11,900 -1,380 Descending Salt Lake Center
10:49PM 42.3111 -114.1886 320° Northwest 307 353 9,700 -1,800 Descending Salt Lake Center
10:50PM 42.3772 -114.2539 324° Northwest 283 326 7,900 -1,800 Descending Salt Lake Center